Battlement Mesa, Colorado
Current Conditions -  °F | °C
As of 10:53 PM on Tuesday 27 Jan 2015 (Local Time) from KRIL Reporting Station
Broken Clouds Broken Clouds  
Wind Chill: 35°   Ceiling: 8500
Heat Index: 35°   Visibility: 10mi
Dew Point: 28°   Wind: 3mph
Humidity: 76%   Direction: 120°ESE
Pressure: 30.25"   Gusts: NA
Location:  39.44°N, 108.03°W
Report Text: KRIL 280553Z AUTO 12003KT 10SM FEW065 BKN085 02/M02 A3025 RMK AO2 SLP246 T00171022 10094 20011 50000
Loading
Personal Weather Stations






























Interactive Weather Map New forecast layout! Learn more

10-Day Weather Forecast

Advertisements
Track Severe Weather on mobile